»·PEaware :: DCM330 KPDX-KOTH

DCM330 :: KPDX-KOTH

FLIGHT INFORMATION

Flight Status: Arrived
Operator: Unknown
More flights by this operator :: More flights under this callsign
Pilot: Cole F. (14495)
Aircraft: ECLIPSE 500
(EA50)
More flights by this aircraft type
Origin: KPDX Portland Intl
United States
Destination: KOTH North Bend Mun
United States
More flights between these airports :: More routes between these airports
Route: UBG V287 OTH
File this flight plan on PilotEdge
Remarks:
Altitude:
(Current/Filed)
26,000ft
Speed:
(Current/Filed)
350kts
Departed: 30-Oct-17 12:28 PM
Arrived: 30-Oct-17 01:09 PM
Distance/Time
Traveled:
148nm/0:41
Distance/Time
To Go:
Arrived

Flight Plot

Page will automatically refresh every two minutes.

Flight plan parsing failed; only flown route is shown


Map Options




Map Legend


Flown Route
Filed Route
Departure Airport
Arrival Airport
Navaid (VOR, NDB)
Fix

Horizontal Profiles

Position Reports

Time Latitude Longitude Heading Altitude Ground
Speed
30-Oct-17 12:18 45.585774 -122.582916 29 32ft 0kts
30-Oct-17 12:19 45.585774 -122.582916 29 32ft 0kts
30-Oct-17 12:20 45.585774 -122.582916 29 32ft 0kts
30-Oct-17 12:21 45.585774 -122.582916 29 32ft 0kts
30-Oct-17 12:22 45.585774 -122.582916 29 32ft 0kts
30-Oct-17 12:23 45.585774 -122.582916 29 32ft 0kts
30-Oct-17 12:24 45.585801 -122.582895 26 32ft 2kts
30-Oct-17 12:25 45.586871 -122.582051 26 32ft 0kts
30-Oct-17 12:26 45.587436 -122.582350 298 32ft 10kts
30-Oct-17 12:27 45.588894 -122.583690 298 32ft 11kts
30-Oct-17 12:28 45.589662 -122.585643 298 32ft 13kts
30-Oct-17 12:29 45.591303 -122.589874 301 32ft 13kts
30-Oct-17 12:30 45.593113 -122.594491 300 32ft 8kts
30-Oct-17 12:31 45.594461 -122.597475 35 32ft 4kts
30-Oct-17 12:32 45.594941 -122.595987 110 32ft 7kts
30-Oct-17 12:33 45.581762 -122.565963 117 1307ft 125kts
30-Oct-17 12:34 45.560340 -122.519368 117 3432ft 157kts
30-Oct-17 12:35 45.524868 -122.499685 225 5584ft 199kts
30-Oct-17 12:36 45.498953 -122.570700 241 7641ft 209kts
30-Oct-17 12:37 45.472707 -122.643732 243 10017ft 212kts
30-Oct-17 12:38 45.443800 -122.725308 245 11695ft 242kts
30-Oct-17 12:39 45.413278 -122.811684 243 13548ft 252kts
30-Oct-17 12:40 45.381765 -122.900609 238 15964ft 252kts
30-Oct-17 12:41 45.344879 -122.978353 201 18210ft 234kts
30-Oct-17 12:42 45.282286 -123.021414 200 19446ft 268kts
30-Oct-17 12:43 45.211922 -123.066452 205 20918ft 284kts
30-Oct-17 12:44 45.140443 -123.112359 207 22557ft 286kts
30-Oct-17 12:45 45.067908 -123.158599 208 23991ft 290kts
30-Oct-17 12:46 44.993450 -123.205639 207 25228ft 297kts
30-Oct-17 12:47 44.917508 -123.253372 208 26102ft 312kts
30-Oct-17 12:48 44.834273 -123.305599 207 26102ft 344kts
30-Oct-17 12:49 44.745298 -123.361049 207 26100ft 357kts
30-Oct-17 12:50 44.654154 -123.417668 207 25518ft 363kts
30-Oct-17 12:51 44.567704 -123.471205 207 23993ft 327kts
30-Oct-17 12:52 44.486315 -123.521152 208 22491ft 296kts
30-Oct-17 12:53 44.414425 -123.566169 205 20974ft 277kts
30-Oct-17 12:54 44.344635 -123.609386 200 19443ft 279kts
30-Oct-17 12:55 44.274429 -123.651911 198 17657ft 282kts
30-Oct-17 12:56 44.201485 -123.695536 202 16160ft 289kts
30-Oct-17 12:57 44.129235 -123.739642 204 14667ft 280kts
30-Oct-17 12:58 44.059170 -123.782527 204 13182ft 273kts
30-Oct-17 12:59 43.990722 -123.824107 203 11807ft 268kts
30-Oct-17 13:00 43.923571 -123.864738 203 10623ft 262kts
30-Oct-17 13:01 43.858206 -123.904233 202 9985ft 257kts
30-Oct-17 13:02 43.791884 -123.943965 203 9535ft 261kts
30-Oct-17 13:03 43.731600 -123.980145 203 8307ft 218kts
30-Oct-17 13:04 43.678218 -124.011900 204 7218ft 205kts
30-Oct-17 13:05 43.626235 -124.043069 204 6421ft 203kts
30-Oct-17 13:06 43.572951 -124.063465 195 5954ft 187kts
30-Oct-17 13:07 43.523726 -124.080451 195 5950ft 182kts
30-Oct-17 13:08 43.475017 -124.097222 195 5233ft 166kts
30-Oct-17 13:09 43.427878 -124.113172 195 4767ft 191kts
30-Oct-17 13:10 43.377882 -124.130104 195 3879ft 182kts
30-Oct-17 13:11 43.345306 -124.164291 296 3001ft 146kts
30-Oct-17 13:12 43.368341 -124.205630 333 1559ft 125kts
30-Oct-17 13:13 43.394226 -124.225928 334 591ft 97kts
30-Oct-17 13:14 43.414913 -124.242289 326 7ft 27kts
30-Oct-17 13:15 43.415316 -124.245110 328 7ft 6kts

Navigation Log

Ident Type
Flight plan parsing failed, navigation log unavailable